createdAt,value
2022-12-23T00:00:43.403Z,3.60
2022-12-23T00:03:12.074Z,4.35
2022-12-23T00:05:41.313Z,4.05
2022-12-23T00:08:09.861Z,3.55
2022-12-23T00:10:41.271Z,4.00
2022-12-23T00:13:27.647Z,2.58
2022-12-23T00:16:02.729Z,3.35
2022-12-23T00:18:31.375Z,2.42
2022-12-23T00:21:04.975Z,2.78
2022-12-23T00:23:37.659Z,2.47
2022-12-23T00:26:07.944Z,2.40
2022-12-23T00:28:36.506Z,2.80
2022-12-23T00:31:05.830Z,2.70
2022-12-23T00:33:35.135Z,2.70
2022-12-23T00:36:03.930Z,3.10
2022-12-23T00:38:50.129Z,3.28
2022-12-23T00:41:38.116Z,3.35
2022-12-23T00:44:06.981Z,3.35
2022-12-23T00:46:35.690Z,4.57
2022-12-23T00:49:21.746Z,4.05
2022-12-23T00:51:50.338Z,3.67
2022-12-23T00:54:19.081Z,3.60
2022-12-23T00:56:48.866Z,3.97
2022-12-23T00:59:17.536Z,4.20
2022-12-23T01:02:03.867Z,3.88
2022-12-23T01:04:50.152Z,3.78
2022-12-23T01:07:18.892Z,3.85
2022-12-23T01:09:47.398Z,3.20
2022-12-23T01:12:17.656Z,3.83
2022-12-23T01:14:46.322Z,3.88
2022-12-23T01:17:15.146Z,4.00
2022-12-23T01:19:43.655Z,3.35
2022-12-23T01:22:12.080Z,3.63
2022-12-23T01:24:40.637Z,3.40
2022-12-23T01:27:09.421Z,3.10
2022-12-23T01:29:39.205Z,3.78
2022-12-23T01:32:07.785Z,3.38
2022-12-23T01:34:37.416Z,3.42
2022-12-23T01:37:06.368Z,2.95
2022-12-23T01:39:35.061Z,2.83
2022-12-23T01:42:21.082Z,2.58
2022-12-23T01:45:01.085Z,3.10
2022-12-23T01:47:33.637Z,2.60
2022-12-23T01:50:04.764Z,2.58
2022-12-23T01:52:34.503Z,3.00
2022-12-23T01:55:03.106Z,2.55
2022-12-23T01:57:31.675Z,2.25
2022-12-23T02:00:18.895Z,2.50
2022-12-23T02:03:05.358Z,2.38
2022-12-23T02:05:34.192Z,2.25
2022-12-23T02:08:20.159Z,2.67
2022-12-23T02:11:12.665Z,2.13
2022-12-23T02:14:07.688Z,2.75
2022-12-23T02:16:41.337Z,3.47
2022-12-23T02:19:14.350Z,2.22
2022-12-23T02:21:49.193Z,2.35
2022-12-23T02:24:46.554Z,2.88
2022-12-23T02:27:16.418Z,2.45
2022-12-23T02:29:59.665Z,2.83
2022-12-23T02:32:32.295Z,3.00
2022-12-23T02:35:03.677Z,2.58
2022-12-23T02:37:36.185Z,2.33
2022-12-23T02:40:06.782Z,2.30
2022-12-23T02:42:37.491Z,2.72
2022-12-23T02:45:08.358Z,3.03
2022-12-23T02:47:40.271Z,2.97
2022-12-23T02:50:11.276Z,2.78
2022-12-23T02:52:40.832Z,2.25
2022-12-23T02:55:11.403Z,2.55
2022-12-23T02:57:42.387Z,2.60
2022-12-23T03:00:11.592Z,2.55
2022-12-23T03:02:42.239Z,2.40
2022-12-23T03:05:25.388Z,2.97
2022-12-23T03:07:54.692Z,2.50
2022-12-23T03:10:27.415Z,2.45
2022-12-23T03:13:00.454Z,2.33
2022-12-23T03:15:34.491Z,2.65
2022-12-23T03:18:06.599Z,2.55
2022-12-23T03:20:39.207Z,2.75
2022-12-23T03:23:10.084Z,2.65
2022-12-23T03:25:40.748Z,2.70
2022-12-23T03:28:11.527Z,2.53
2022-12-23T03:30:42.631Z,2.75
2022-12-23T03:33:15.335Z,2.58
2022-12-23T03:35:45.670Z,2.80
2022-12-23T03:38:15.754Z,2.83
2022-12-23T03:40:46.845Z,2.50
2022-12-23T03:43:19.707Z,2.85
2022-12-23T03:45:50.661Z,2.58
2022-12-23T03:48:23.458Z,2.33
2022-12-23T03:50:54.172Z,2.80
2022-12-23T03:53:24.368Z,2.83
2022-12-23T03:55:55.048Z,2.58
2022-12-23T03:58:30.820Z,2.50
2022-12-23T04:01:01.703Z,2.35
2022-12-23T04:03:35.169Z,3.00
2022-12-23T04:06:07.547Z,2.45
2022-12-23T04:08:37.522Z,2.80
2022-12-23T04:11:06.627Z,2.63
2022-12-23T04:13:35.200Z,2.65
2022-12-23T04:16:04.254Z,2.60
2022-12-23T04:18:34.366Z,2.55
2022-12-23T04:21:02.995Z,2.83
2022-12-23T04:23:31.614Z,2.30
2022-12-23T04:26:00.225Z,2.88
2022-12-23T04:28:28.655Z,3.20
2022-12-23T04:30:57.313Z,2.90
2022-12-23T04:33:25.891Z,3.00
2022-12-23T04:35:55.837Z,3.28
2022-12-23T04:38:24.378Z,3.15
2022-12-23T04:40:53.110Z,3.53
2022-12-23T04:43:21.625Z,3.03
2022-12-23T04:45:52.356Z,3.50
2022-12-23T04:48:20.783Z,3.35
2022-12-23T04:50:49.331Z,3.08
2022-12-23T04:53:19.223Z,3.72
2022-12-23T04:55:51.677Z,4.10
2022-12-23T04:58:22.118Z,3.78
2022-12-23T05:00:50.882Z,3.70
2022-12-23T05:03:19.563Z,4.00
2022-12-23T05:05:48.280Z,4.40
2022-12-23T05:08:16.741Z,4.28
2022-12-23T05:10:47.813Z,3.75
2022-12-23T05:13:16.253Z,3.60
2022-12-23T05:15:45.690Z,3.78
2022-12-23T05:18:14.162Z,4.18
2022-12-23T05:20:42.896Z,3.80
2022-12-23T05:23:11.573Z,4.00
2022-12-23T05:25:40.933Z,3.50
2022-12-23T05:28:10.717Z,3.30
2022-12-23T05:30:39.487Z,3.28
2022-12-23T05:33:08.092Z,3.50
2022-12-23T05:35:36.744Z,3.10
2022-12-23T05:38:05.210Z,3.05
2022-12-23T05:40:33.831Z,3.25
2022-12-23T05:43:02.702Z,3.30
2022-12-23T05:45:32.545Z,2.88
2022-12-23T05:48:01.128Z,2.88
2022-12-23T05:50:29.689Z,2.85
2022-12-23T05:52:58.275Z,2.95
2022-12-23T05:55:26.928Z,3.42
2022-12-23T05:57:55.663Z,3.20
2022-12-23T06:00:24.201Z,2.40
2022-12-23T06:02:54.628Z,2.55
2022-12-23T06:05:23.477Z,2.85
2022-12-23T06:07:52.388Z,3.08
2022-12-23T06:10:21.011Z,3.15
2022-12-23T06:12:49.621Z,2.55
2022-12-23T06:15:18.366Z,3.63
2022-12-23T06:17:46.804Z,2.78
2022-12-23T06:20:20.799Z,3.22
2022-12-23T06:22:49.763Z,2.65
2022-12-23T06:25:18.451Z,2.45
2022-12-23T06:27:46.906Z,2.30
2022-12-23T06:30:15.745Z,2.53
2022-12-23T06:32:44.270Z,2.60
2022-12-23T06:35:13.425Z,2.67
2022-12-23T06:37:43.189Z,2.70
2022-12-23T06:40:12.619Z,2.72
2022-12-23T06:42:41.042Z,3.05
2022-12-23T06:45:10.271Z,3.38
2022-12-23T06:47:38.679Z,2.95
2022-12-23T06:50:07.647Z,3.45
2022-12-23T06:52:36.062Z,3.17
2022-12-23T06:55:06.299Z,3.30
2022-12-23T06:57:34.832Z,3.53
2022-12-23T07:00:03.399Z,4.00
2022-12-23T07:02:32.074Z,3.67
2022-12-23T07:05:00.736Z,4.45
2022-12-23T07:07:29.488Z,4.57
2022-12-23T07:09:58.098Z,4.30
2022-12-23T07:12:27.846Z,4.20
2022-12-23T07:14:56.398Z,4.50
2022-12-23T07:17:24.861Z,4.95
2022-12-23T07:19:53.508Z,4.93
2022-12-23T07:22:22.059Z,5.10
2022-12-23T07:24:50.540Z,5.40
2022-12-23T07:27:19.071Z,5.53
2022-12-23T07:29:48.983Z,5.18
2022-12-23T07:32:17.408Z,5.20
2022-12-23T07:34:46.011Z,5.30
2022-12-23T07:37:14.645Z,5.18
2022-12-23T07:39:43.212Z,5.40
2022-12-23T07:45:02.913Z,4.70
2022-12-23T07:47:31.508Z,4.13
2022-12-23T07:50:00.228Z,5.10
2022-12-23T07:52:28.856Z,4.28
2022-12-23T07:54:57.423Z,4.43
2022-12-23T07:57:25.958Z,3.80
2022-12-23T07:59:54.423Z,4.05
2022-12-23T08:02:25.259Z,4.35
2022-12-23T08:04:54.172Z,3.75
2022-12-23T08:07:22.880Z,4.15
2022-12-23T08:09:51.459Z,4.80
2022-12-23T08:12:19.900Z,4.50
2022-12-23T08:14:50.481Z,4.47
2022-12-23T08:17:18.939Z,4.30
2022-12-23T08:19:48.994Z,3.88
2022-12-23T08:22:17.931Z,3.60
2022-12-23T08:24:46.541Z,3.50
2022-12-23T08:27:16.267Z,4.13
2022-12-23T08:29:44.813Z,3.30
2022-12-23T08:32:13.219Z,4.60
2022-12-23T08:34:41.945Z,3.90
2022-12-23T08:37:11.960Z,3.63
2022-12-23T08:39:40.906Z,4.13
2022-12-23T08:42:10.235Z,3.58
2022-12-23T08:44:38.866Z,3.33
2022-12-23T08:47:07.560Z,3.63
2022-12-23T08:49:36.406Z,3.78
2022-12-23T08:52:05.034Z,4.07
2022-12-23T08:54:34.825Z,3.35
2022-12-23T08:57:03.420Z,3.58
2022-12-23T08:59:31.940Z,3.95
2022-12-23T09:02:02.101Z,3.83
2022-12-23T09:04:30.909Z,3.70
2022-12-23T09:06:59.367Z,4.68
2022-12-23T09:09:28.090Z,3.60
2022-12-23T09:11:58.092Z,3.88
2022-12-23T09:14:26.678Z,3.90
2022-12-23T09:16:55.288Z,3.72
2022-12-23T09:19:23.739Z,4.22
2022-12-23T09:21:52.297Z,4.00
2022-12-23T09:24:20.876Z,4.18
2022-12-23T09:26:49.384Z,4.32
2022-12-23T09:29:19.147Z,4.38
2022-12-23T09:31:48.060Z,4.10
2022-12-23T09:34:16.594Z,3.92
2022-12-23T09:36:47.977Z,4.93
2022-12-23T09:39:19.084Z,3.83
2022-12-23T09:41:50.720Z,4.22
2022-12-23T09:44:27.983Z,3.67
2022-12-23T09:46:58.674Z,4.15
2022-12-23T09:49:27.426Z,4.35
2022-12-23T09:52:00.216Z,4.38
2022-12-23T09:54:29.893Z,4.05
2022-12-23T09:57:00.455Z,4.10
2022-12-23T09:59:38.397Z,4.10
2022-12-23T10:02:13.308Z,3.85
2022-12-23T10:04:47.337Z,3.97
2022-12-23T10:07:21.393Z,4.20
2022-12-23T10:09:51.914Z,4.43
2022-12-23T10:12:27.392Z,4.55
2022-12-23T10:15:00.708Z,5.15
2022-12-23T10:17:30.272Z,5.47
2022-12-23T10:20:01.076Z,5.45
2022-12-23T10:22:34.598Z,6.50
2022-12-23T10:25:04.028Z,5.78
2022-12-23T10:27:34.351Z,5.15
2022-12-23T10:30:26.491Z,5.38
2022-12-23T10:33:00.434Z,5.40
2022-12-23T10:35:38.782Z,5.65
2022-12-23T10:38:17.310Z,6.10
2022-12-23T10:40:51.635Z,5.47
2022-12-23T10:43:24.791Z,5.65
2022-12-23T10:45:59.165Z,6.15
2022-12-23T10:48:34.786Z,6.65
2022-12-23T10:51:04.176Z,6.50
2022-12-23T10:53:37.547Z,6.18
2022-12-23T10:56:07.272Z,6.32
2022-12-23T10:58:37.418Z,5.65
2022-12-23T11:01:16.225Z,6.55
2022-12-23T11:03:56.531Z,5.88
2022-12-23T11:06:30.154Z,6.35
2022-12-23T11:09:02.617Z,5.55
2022-12-23T11:11:46.137Z,6.60
2022-12-23T11:14:30.600Z,5.95
2022-12-23T11:17:00.620Z,5.90
2022-12-23T11:19:29.298Z,5.93
2022-12-23T11:21:58.862Z,5.75
2022-12-23T11:24:28.183Z,5.80
2022-12-23T11:27:02.049Z,5.07
2022-12-23T11:29:33.099Z,4.78
2022-12-23T11:32:03.579Z,5.03
2022-12-23T11:34:35.200Z,5.15
2022-12-23T11:37:07.557Z,5.55
2022-12-23T11:39:37.394Z,5.03
2022-12-23T11:42:08.153Z,4.43
2022-12-23T11:44:40.247Z,4.30
2022-12-23T11:47:29.103Z,4.38
2022-12-23T11:49:58.477Z,3.55
2022-12-23T11:52:27.867Z,3.53
2022-12-23T11:54:57.089Z,3.25
2022-12-23T11:57:29.207Z,2.88
2022-12-23T11:59:59.597Z,2.90
2022-12-23T12:02:33.436Z,2.78
2022-12-23T12:05:03.143Z,2.70
2022-12-23T12:07:32.567Z,2.95
2022-12-23T12:10:02.142Z,2.60
2022-12-23T12:15:28.215Z,2.80
2022-12-23T12:17:58.712Z,2.88
2022-12-23T12:20:33.338Z,2.47
2022-12-23T12:23:06.066Z,2.70
2022-12-23T12:25:39.921Z,3.00
2022-12-23T12:28:12.514Z,2.53
2022-12-23T12:30:45.431Z,2.60
2022-12-23T12:33:18.159Z,2.78
2022-12-23T12:35:53.613Z,3.10
2022-12-23T12:38:26.790Z,2.63
2022-12-23T12:40:57.273Z,2.60
2022-12-23T12:43:28.800Z,2.53
2022-12-23T12:46:04.088Z,2.13
2022-12-23T12:48:38.960Z,2.10
2022-12-23T12:51:13.225Z,2.15
2022-12-23T12:53:47.782Z,1.90
2022-12-23T12:56:20.041Z,2.25
2022-12-23T12:58:48.528Z,1.83
2022-12-23T13:01:24.181Z,2.38
2022-12-23T13:04:05.370Z,1.90
2022-12-23T13:06:37.944Z,2.10
2022-12-23T13:09:11.379Z,2.20
2022-12-23T13:11:45.459Z,2.13
2022-12-23T13:14:23.602Z,2.00
2022-12-23T13:16:55.176Z,2.42
2022-12-23T13:19:29.029Z,2.22
2022-12-23T13:22:01.704Z,2.05
2022-12-23T13:24:33.366Z,2.13
2022-12-23T13:27:06.280Z,2.00
2022-12-23T13:30:01.636Z,2.47
2022-12-23T13:32:36.883Z,2.20
2022-12-23T13:35:15.740Z,1.70
2022-12-23T13:37:48.421Z,1.60
2022-12-23T13:40:24.477Z,1.60
2022-12-23T13:42:56.564Z,1.50
2022-12-23T13:45:28.201Z,1.23
2022-12-23T13:48:05.284Z,1.20
2022-12-23T13:50:36.852Z,1.48
2022-12-23T13:53:15.739Z,1.50
2022-12-23T13:55:57.279Z,1.30
2022-12-23T13:58:26.803Z,1.05
2022-12-23T14:00:59.098Z,0.75
2022-12-23T14:03:34.823Z,1.13
2022-12-23T14:06:21.314Z,1.10
2022-12-23T14:08:50.178Z,0.95
2022-12-23T14:11:20.968Z,0.98
2022-12-23T14:13:56.083Z,1.10
2022-12-23T14:16:39.017Z,1.00
2022-12-23T14:19:25.507Z,0.95
2022-12-23T14:22:02.733Z,0.88
2022-12-23T14:24:46.137Z,1.30
2022-12-23T14:27:32.390Z,1.40
2022-12-23T14:30:06.484Z,1.40
2022-12-23T14:32:40.203Z,1.40
2022-12-23T14:35:29.263Z,1.65
2022-12-23T14:38:25.678Z,1.30
2022-12-23T14:40:59.915Z,1.58
2022-12-23T14:43:51.256Z,2.03
2022-12-23T14:46:38.305Z,1.75
2022-12-23T14:49:38.836Z,2.08
2022-12-23T14:52:26.943Z,1.63
2022-12-23T14:55:28.632Z,2.25
2022-12-23T14:57:45.386Z,2.30
2022-12-23T15:00:14.050Z,2.15
2022-12-23T15:02:42.733Z,2.30
2022-12-23T15:05:11.828Z,2.40
2022-12-23T15:07:42.585Z,2.00
2022-12-23T15:10:17.987Z,2.25
2022-12-23T15:12:48.842Z,2.35
2022-12-23T15:15:18.608Z,2.83
2022-12-23T15:17:47.279Z,2.75
2022-12-23T15:20:18.279Z,2.28
2022-12-23T15:22:47.693Z,2.70
2022-12-23T15:25:25.481Z,3.28
2022-12-23T15:28:00.817Z,3.05
2022-12-23T15:30:31.042Z,2.95
2022-12-23T15:33:00.848Z,3.08
2022-12-23T15:35:30.645Z,3.28
2022-12-23T15:37:59.462Z,4.60
2022-12-23T15:40:30.500Z,2.60
2022-12-23T15:42:59.477Z,3.47
2022-12-23T15:45:32.051Z,3.03
2022-12-23T15:48:00.638Z,2.80
2022-12-23T15:50:29.313Z,3.15
2022-12-23T15:52:59.596Z,3.42
2022-12-23T15:55:32.696Z,3.65
2022-12-23T15:58:02.184Z,4.05
2022-12-23T16:00:33.173Z,4.18
2022-12-23T16:03:04.570Z,5.38
2022-12-23T16:05:37.021Z,3.88
2022-12-23T16:08:13.635Z,4.22
2022-12-23T16:10:44.298Z,3.90
2022-12-23T16:13:18.279Z,3.45
2022-12-23T16:15:47.112Z,4.97
2022-12-23T16:18:21.571Z,4.45
2022-12-23T16:20:51.389Z,5.47
2022-12-23T16:23:19.876Z,3.92
2022-12-23T16:25:51.132Z,4.05
2022-12-23T16:28:22.987Z,3.88
2022-12-23T16:30:53.615Z,4.25
2022-12-23T16:33:25.662Z,4.00
2022-12-23T16:35:55.396Z,3.65
2022-12-23T16:38:24.704Z,4.80
2022-12-23T16:40:55.920Z,3.38
2022-12-23T16:43:24.869Z,4.45
2022-12-23T16:45:54.418Z,4.28
2022-12-23T16:48:27.133Z,4.75
2022-12-23T16:50:55.707Z,4.10
2022-12-23T16:53:24.183Z,4.47
2022-12-23T16:55:58.536Z,4.47
2022-12-23T16:58:30.889Z,4.43
2022-12-23T17:00:59.541Z,4.18
2022-12-23T17:03:28.163Z,5.18
2022-12-23T17:05:56.589Z,4.95
2022-12-23T17:08:25.017Z,5.03
2022-12-23T17:10:53.733Z,3.45
2022-12-23T17:13:22.245Z,3.92
2022-12-23T17:15:52.157Z,5.15
2022-12-23T17:18:21.295Z,3.92
2022-12-23T17:20:51.038Z,4.32
2022-12-23T17:23:27.525Z,3.65
2022-12-23T17:25:56.108Z,4.10
2022-12-23T17:28:24.619Z,4.22
2022-12-23T17:30:56.182Z,3.50
2022-12-23T17:33:26.076Z,4.07
2022-12-23T17:35:55.858Z,3.88
2022-12-23T17:38:24.611Z,3.60
2022-12-23T17:40:53.247Z,4.05
2022-12-23T17:43:23.092Z,4.40
2022-12-23T17:45:51.713Z,4.13
2022-12-23T17:48:28.015Z,3.63
2022-12-23T17:50:59.873Z,4.40
2022-12-23T17:53:28.325Z,4.72
2022-12-23T17:55:57.256Z,3.75
2022-12-23T17:58:25.827Z,4.50
2022-12-23T18:00:54.445Z,4.80
2022-12-23T18:03:26.213Z,4.30
2022-12-23T18:06:01.653Z,4.60
2022-12-23T18:08:30.658Z,4.63
2022-12-23T18:10:59.968Z,4.65
2022-12-23T18:13:28.479Z,4.75
2022-12-23T18:15:57.507Z,5.30
2022-12-23T18:18:36.779Z,5.50
2022-12-23T18:21:10.756Z,4.90
2022-12-23T18:23:39.443Z,5.93
2022-12-23T18:26:07.890Z,5.60
2022-12-23T18:28:36.440Z,5.85
2022-12-23T18:31:05.354Z,5.18
2022-12-23T18:33:35.153Z,4.85
2022-12-23T18:36:03.784Z,4.90
2022-12-23T18:38:32.293Z,4.47
2022-12-23T18:41:00.923Z,4.78
2022-12-23T18:43:29.741Z,5.00
2022-12-23T18:45:58.230Z,4.88
2022-12-23T18:48:26.792Z,9.70
2022-12-23T18:50:56.595Z,7.35
2022-12-23T18:53:26.305Z,4.25
2022-12-23T18:55:55.125Z,4.55
2022-12-23T18:58:24.411Z,5.00
2022-12-23T19:00:54.238Z,4.93
2022-12-23T19:03:24.880Z,4.47
2022-12-23T19:05:53.636Z,4.63
2022-12-23T19:08:26.824Z,5.63
2022-12-23T19:10:56.501Z,4.32
2022-12-23T19:13:25.253Z,4.35
2022-12-23T19:15:54.223Z,4.63
2022-12-23T19:18:23.518Z,4.93
2022-12-23T19:20:52.043Z,4.95
2022-12-23T19:23:20.646Z,5.45
2022-12-23T19:25:55.355Z,4.40
2022-12-23T19:28:24.405Z,5.18
2022-12-23T19:30:53.131Z,4.38
2022-12-23T19:33:21.552Z,4.22
2022-12-23T19:35:50.146Z,4.57
2022-12-23T19:38:18.667Z,6.10
2022-12-23T19:40:47.111Z,5.18
2022-12-23T19:43:16.865Z,5.18
2022-12-23T19:45:45.441Z,4.53
2022-12-23T19:48:14.059Z,5.05
2022-12-23T19:50:42.545Z,4.47
2022-12-23T19:53:11.064Z,4.18
2022-12-23T19:55:39.882Z,4.50
2022-12-23T19:58:08.316Z,4.78
2022-12-23T20:00:38.101Z,4.85
2022-12-23T20:03:06.828Z,4.35
2022-12-23T20:05:35.448Z,5.03
2022-12-23T20:08:03.874Z,4.53
2022-12-23T20:10:32.424Z,4.95
2022-12-23T20:13:00.838Z,4.85
2022-12-23T20:15:29.492Z,4.70
2022-12-23T20:17:59.854Z,4.85
2022-12-23T20:20:28.424Z,4.38
2022-12-23T20:22:56.950Z,5.35
2022-12-23T20:25:25.547Z,4.47
2022-12-23T20:27:54.153Z,4.45
2022-12-23T20:30:22.658Z,4.40
2022-12-23T20:32:51.173Z,5.45
2022-12-23T20:35:20.952Z,4.05
2022-12-23T20:37:49.620Z,3.70
2022-12-23T20:40:19.249Z,3.83
2022-12-23T20:42:47.718Z,5.45
2022-12-23T20:45:16.289Z,4.70
2022-12-23T20:47:44.891Z,4.80
2022-12-23T20:50:13.377Z,3.53
2022-12-23T20:52:43.099Z,4.65
2022-12-23T20:55:11.795Z,4.45
2022-12-23T20:57:40.251Z,4.20
2022-12-23T21:00:09.109Z,5.38
2022-12-23T21:02:37.679Z,5.32
2022-12-23T21:05:06.558Z,5.13
2022-12-23T21:07:35.015Z,4.35
2022-12-23T21:10:05.606Z,4.38
2022-12-23T21:12:34.173Z,4.55
2022-12-23T21:15:02.740Z,5.85
2022-12-23T21:17:31.342Z,5.30
2022-12-23T21:20:07.467Z,5.05
2022-12-23T21:22:36.443Z,5.60
2022-12-23T21:25:06.627Z,4.93
2022-12-23T21:27:35.222Z,4.85
2022-12-23T21:30:03.771Z,4.70
2022-12-23T21:32:32.385Z,5.47
2022-12-23T21:35:02.810Z,4.57
2022-12-23T21:37:31.589Z,5.40
2022-12-23T21:40:00.155Z,5.65
2022-12-23T21:42:30.035Z,5.03
2022-12-23T21:44:58.830Z,5.35
2022-12-23T21:47:27.289Z,5.35
2022-12-23T21:49:56.142Z,5.50
2022-12-23T21:52:24.653Z,4.97
2022-12-23T21:54:53.227Z,6.07
2022-12-23T21:57:21.737Z,5.50
2022-12-23T21:59:51.492Z,5.18
2022-12-23T22:02:20.161Z,5.13
2022-12-23T22:04:48.862Z,5.65
2022-12-23T22:07:17.412Z,5.38
2022-12-23T22:09:46.147Z,5.05
2022-12-23T22:12:14.731Z,5.15
2022-12-23T22:14:43.607Z,5.53
2022-12-23T22:17:13.343Z,5.38
2022-12-23T22:19:41.995Z,5.10
2022-12-23T22:22:10.707Z,4.57
2022-12-23T22:24:39.202Z,5.28
2022-12-23T22:27:07.641Z,6.15
2022-12-23T22:29:36.200Z,4.57
2022-12-23T22:32:05.282Z,5.43
2022-12-23T22:34:35.265Z,5.38
2022-12-23T22:37:03.759Z,5.28
2022-12-23T22:39:32.317Z,5.13
2022-12-23T22:42:00.885Z,4.95
2022-12-23T22:44:29.384Z,5.82
2022-12-23T22:46:57.822Z,5.05
2022-12-23T22:49:26.396Z,6.05
2022-12-23T22:51:56.300Z,6.53
2022-12-23T22:54:24.840Z,5.15
2022-12-23T22:56:53.278Z,4.57
2022-12-23T22:59:22.331Z,4.78
2022-12-23T23:01:51.410Z,5.07
2022-12-23T23:04:20.165Z,4.78
2022-12-23T23:06:49.185Z,5.80
2022-12-23T23:09:20.201Z,4.63
2022-12-23T23:11:48.922Z,4.55
2022-12-23T23:14:18.588Z,5.63
2022-12-23T23:16:47.403Z,5.85
2022-12-23T23:19:16.515Z,4.75
2022-12-23T23:21:45.052Z,4.35
2022-12-23T23:24:13.623Z,4.65
2022-12-23T23:26:43.393Z,5.20
2022-12-23T23:29:12.056Z,4.75
2022-12-23T23:31:42.921Z,4.30
2022-12-23T23:34:12.441Z,4.68
2022-12-23T23:36:41.523Z,5.53
2022-12-23T23:39:10.217Z,4.50
2022-12-23T23:41:38.766Z,5.68
2022-12-23T23:44:08.534Z,4.57
2022-12-23T23:46:37.137Z,5.03
2022-12-23T23:49:05.691Z,4.80
2022-12-23T23:51:34.237Z,5.15
2022-12-23T23:54:02.818Z,4.60
2022-12-23T23:56:37.753Z,5.53
2022-12-23T23:59:09.385Z,5.18
